createdAt,value
2023-05-05T00:01:10.335Z,11.49
2023-05-05T00:03:53.532Z,11.51
2023-05-05T00:06:37.899Z,11.52
2023-05-05T00:09:20.818Z,11.51
2023-05-05T00:12:03.732Z,11.50
2023-05-05T00:14:46.691Z,11.50
2023-05-05T00:17:29.706Z,11.47
2023-05-05T00:20:13.700Z,11.48
2023-05-05T00:22:58.028Z,11.48
2023-05-05T00:25:41.133Z,11.49
2023-05-05T00:28:24.086Z,11.49
2023-05-05T00:31:07.564Z,11.49
2023-05-05T00:33:50.521Z,11.49
2023-05-05T00:36:33.931Z,11.49
2023-05-05T00:39:18.609Z,11.48
2023-05-05T00:42:01.326Z,11.48
2023-05-05T00:44:44.980Z,11.47
2023-05-05T00:47:27.976Z,11.45
2023-05-05T00:50:12.006Z,11.41
2023-05-05T00:52:57.269Z,11.37
2023-05-05T00:55:41.674Z,11.35
2023-05-05T00:58:25.759Z,11.32
2023-05-05T01:01:08.973Z,11.31
2023-05-05T01:03:52.235Z,11.30
2023-05-05T01:06:49.562Z,11.30
2023-05-05T01:09:39.566Z,11.28
2023-05-05T01:12:38.308Z,11.27
2023-05-05T01:15:30.459Z,11.29
2023-05-05T01:18:24.907Z,11.27
2023-05-05T01:21:14.802Z,11.27
2023-05-05T01:24:40.136Z,11.26
2023-05-05T01:27:51.224Z,11.25
2023-05-05T01:30:56.131Z,11.23
2023-05-05T01:33:46.945Z,11.20
2023-05-05T01:36:37.370Z,11.20
2023-05-05T01:39:22.102Z,11.20
2023-05-05T01:42:09.303Z,11.19
2023-05-05T01:44:54.106Z,11.18
2023-05-05T01:47:38.789Z,11.17
2023-05-05T01:50:24.091Z,11.19
2023-05-05T01:53:09.588Z,11.20
2023-05-05T01:55:53.963Z,11.19
2023-05-05T01:58:38.607Z,11.16
2023-05-05T02:01:23.796Z,11.15
2023-05-05T02:04:09.853Z,11.13
2023-05-05T02:06:57.423Z,11.09
2023-05-05T02:09:41.903Z,11.07
2023-05-05T02:12:24.910Z,11.07
2023-05-05T02:15:09.989Z,11.06
2023-05-05T02:17:53.991Z,11.04
2023-05-05T02:20:39.690Z,10.96
2023-05-05T02:23:23.764Z,10.97
2023-05-05T02:26:09.118Z,11.01
2023-05-05T02:29:02.054Z,11.00
2023-05-05T02:31:49.243Z,10.97
2023-05-05T02:34:41.203Z,10.87
2023-05-05T02:37:31.104Z,10.81
2023-05-05T02:40:21.063Z,10.74
2023-05-05T02:43:07.481Z,10.81
2023-05-05T02:45:50.561Z,10.79
2023-05-05T02:48:34.837Z,10.77
2023-05-05T02:51:18.334Z,10.78
2023-05-05T02:54:01.676Z,10.76
2023-05-05T02:56:51.052Z,10.74
2023-05-05T02:59:43.042Z,10.76
2023-05-05T03:02:36.418Z,10.76
2023-05-05T03:05:26.314Z,10.74
2023-05-05T03:08:15.138Z,10.72
2023-05-05T03:11:01.127Z,10.68
2023-05-05T03:13:48.071Z,10.65
2023-05-05T03:16:36.770Z,10.61
2023-05-05T03:19:21.413Z,10.60
2023-05-05T03:22:09.318Z,10.58
2023-05-05T03:24:55.162Z,10.56
2023-05-05T03:27:40.309Z,10.54
2023-05-05T03:30:25.470Z,10.55
2023-05-05T03:33:09.383Z,10.53
2023-05-05T03:35:52.571Z,10.54
2023-05-05T03:38:35.471Z,10.53
2023-05-05T03:41:18.427Z,10.42
2023-05-05T03:44:01.838Z,10.39
2023-05-05T03:46:47.058Z,10.37
2023-05-05T03:49:31.701Z,10.36
2023-05-05T03:52:15.141Z,10.33
2023-05-05T03:55:00.208Z,10.33
2023-05-05T03:57:45.967Z,10.30
2023-05-05T04:00:28.918Z,10.29
2023-05-05T04:03:13.573Z,10.27
2023-05-05T04:05:56.805Z,10.23
2023-05-05T04:08:40.610Z,10.19
2023-05-05T04:11:23.966Z,10.17
2023-05-05T04:14:07.070Z,10.15
2023-05-05T04:16:50.292Z,10.14
2023-05-05T04:19:34.633Z,10.14
2023-05-05T04:22:19.183Z,10.13
2023-05-05T04:25:02.311Z,10.14
2023-05-05T04:27:45.848Z,10.17
2023-05-05T04:30:30.281Z,10.21
2023-05-05T04:33:13.987Z,10.25
2023-05-05T04:35:58.510Z,10.27
2023-05-05T04:38:41.751Z,10.26
2023-05-05T04:41:24.859Z,10.30
2023-05-05T04:44:07.920Z,10.30
2023-05-05T04:46:50.950Z,10.31
2023-05-05T04:49:34.047Z,10.33
2023-05-05T04:52:19.268Z,10.35
2023-05-05T04:55:02.976Z,10.37
2023-05-05T04:57:45.878Z,10.42
2023-05-05T05:00:28.793Z,10.44
2023-05-05T05:03:12.703Z,10.47
2023-05-05T05:05:55.608Z,10.51
2023-05-05T05:08:39.957Z,10.56
2023-05-05T05:11:23.012Z,10.61
2023-05-05T05:14:05.970Z,10.66
2023-05-05T05:16:52.426Z,10.69
2023-05-05T05:19:37.667Z,10.74
2023-05-05T05:22:20.812Z,10.77
2023-05-05T05:25:05.890Z,10.84
2023-05-05T05:27:58.473Z,10.90
2023-05-05T05:30:52.141Z,10.98
2023-05-05T05:33:35.674Z,11.02
2023-05-05T05:36:18.622Z,11.10
2023-05-05T05:39:01.987Z,11.20
2023-05-05T05:41:46.538Z,11.30
2023-05-05T05:44:29.652Z,11.37
2023-05-05T05:47:12.902Z,11.44
2023-05-05T05:49:55.803Z,11.54
2023-05-05T05:52:39.134Z,11.63
2023-05-05T05:55:22.871Z,11.73
2023-05-05T05:58:07.400Z,11.80
2023-05-05T06:00:50.960Z,11.88
2023-05-05T06:03:34.032Z,11.98
2023-05-05T06:06:17.271Z,12.10
2023-05-05T06:09:00.585Z,12.20
2023-05-05T06:11:44.493Z,12.28
2023-05-05T06:14:28.977Z,12.37
2023-05-05T06:17:11.941Z,12.45
2023-05-05T06:19:57.835Z,12.54
2023-05-05T06:22:40.793Z,12.60
2023-05-05T06:25:23.871Z,12.71
2023-05-05T06:28:09.339Z,12.84
2023-05-05T06:30:53.639Z,12.92
2023-05-05T06:33:36.588Z,12.98
2023-05-05T06:36:19.547Z,13.07
2023-05-05T06:39:03.003Z,13.12
2023-05-05T06:41:45.924Z,13.20
2023-05-05T06:44:31.131Z,13.25
2023-05-05T06:47:15.460Z,13.31
2023-05-05T06:49:58.348Z,13.37
2023-05-05T06:52:41.279Z,13.45
2023-05-05T06:55:25.045Z,13.50
2023-05-05T06:58:07.948Z,13.53
2023-05-05T07:00:50.972Z,13.62
2023-05-05T07:03:35.351Z,13.71
2023-05-05T07:06:18.275Z,13.82
2023-05-05T07:09:01.174Z,13.90
2023-05-05T07:11:44.125Z,14.00
2023-05-05T07:14:27.145Z,14.04
2023-05-05T07:17:10.001Z,14.15
2023-05-05T07:19:55.042Z,14.25
2023-05-05T07:22:38.156Z,14.28
2023-05-05T07:25:21.166Z,14.42
2023-05-05T07:28:04.415Z,14.50
2023-05-05T07:30:48.084Z,14.64
2023-05-05T07:33:31.705Z,14.77
2023-05-05T07:36:18.300Z,14.92
2023-05-05T07:39:01.537Z,15.06
2023-05-05T07:41:44.735Z,15.09
2023-05-05T07:44:27.607Z,15.11
2023-05-05T07:47:11.093Z,15.23
2023-05-05T07:49:54.060Z,15.35
2023-05-05T07:52:48.256Z,15.49
2023-05-05T07:55:34.544Z,15.50
2023-05-05T07:58:19.080Z,15.65
2023-05-05T08:01:02.829Z,15.79
2023-05-05T08:03:45.947Z,15.82
2023-05-05T08:06:29.890Z,15.79
2023-05-05T08:09:15.055Z,15.99
2023-05-05T08:11:58.099Z,16.20
2023-05-05T08:14:42.467Z,16.38
2023-05-05T08:17:26.249Z,16.50
2023-05-05T08:20:10.118Z,16.60
2023-05-05T08:22:53.713Z,16.74
2023-05-05T08:25:38.109Z,16.83
2023-05-05T08:28:21.062Z,16.80
2023-05-05T08:31:04.209Z,16.92
2023-05-05T08:33:47.760Z,16.97
2023-05-05T08:36:31.040Z,17.01
2023-05-05T08:39:14.036Z,17.11
2023-05-05T08:41:59.067Z,17.28
2023-05-05T08:44:43.130Z,17.42
2023-05-05T08:47:26.906Z,17.45
2023-05-05T08:50:12.143Z,17.53
2023-05-05T08:53:07.197Z,17.66
2023-05-05T08:55:52.308Z,17.78
2023-05-05T08:58:38.157Z,17.88
2023-05-05T09:01:22.272Z,18.14
2023-05-05T09:04:10.072Z,18.35
2023-05-05T09:06:53.742Z,18.56
2023-05-05T09:09:37.185Z,18.78
2023-05-05T09:12:22.734Z,18.78
2023-05-05T09:15:08.129Z,18.81
2023-05-05T09:17:51.522Z,18.89
2023-05-05T09:20:35.973Z,19.08
2023-05-05T09:23:20.405Z,19.35
2023-05-05T09:26:05.272Z,19.62
2023-05-05T09:28:52.912Z,19.85
2023-05-05T09:31:38.173Z,20.04
2023-05-05T09:34:21.155Z,20.17
2023-05-05T09:37:04.337Z,20.39
2023-05-05T09:39:56.098Z,20.56
2023-05-05T09:42:40.066Z,20.72
2023-05-05T09:45:27.828Z,20.83
2023-05-05T09:48:26.436Z,21.12
2023-05-05T09:51:10.136Z,21.34
2023-05-05T09:53:53.511Z,21.50
2023-05-05T09:56:41.185Z,21.74
2023-05-05T09:59:25.113Z,21.94
2023-05-05T10:02:13.678Z,21.92
2023-05-05T10:05:07.015Z,22.12
2023-05-05T10:07:49.957Z,22.27
2023-05-05T10:10:33.072Z,22.61
2023-05-05T10:13:19.799Z,22.77
2023-05-05T10:16:05.395Z,22.89
2023-05-05T10:18:48.986Z,23.11
2023-05-05T10:21:42.166Z,23.13
2023-05-05T10:24:36.113Z,22.91
2023-05-05T10:27:22.103Z,23.04
2023-05-05T10:30:07.622Z,23.30
2023-05-05T10:33:07.920Z,23.62
2023-05-05T10:36:01.854Z,23.85
2023-05-05T10:38:47.478Z,24.06
2023-05-05T10:41:31.887Z,24.19
2023-05-05T10:44:16.276Z,24.40
2023-05-05T10:47:01.133Z,24.61
2023-05-05T10:49:50.084Z,24.66
2023-05-05T10:52:39.560Z,24.69
2023-05-05T10:55:30.028Z,24.81
2023-05-05T10:58:35.030Z,24.91
2023-05-05T11:01:32.575Z,25.02
2023-05-05T11:04:23.106Z,25.24
2023-05-05T11:07:27.560Z,25.46
2023-05-05T11:10:12.224Z,25.69
2023-05-05T11:13:24.489Z,25.78
2023-05-05T11:16:48.095Z,25.82
2023-05-05T11:19:48.261Z,26.01
2023-05-05T11:22:31.273Z,26.08
2023-05-05T11:25:51.511Z,26.00
2023-05-05T11:28:36.189Z,25.85
2023-05-05T11:31:20.273Z,25.93
2023-05-05T11:34:26.834Z,26.12
2023-05-05T11:37:09.992Z,26.24
2023-05-05T11:40:04.655Z,26.03
2023-05-05T11:42:47.590Z,25.91
2023-05-05T11:45:32.637Z,25.68
2023-05-05T11:48:28.255Z,25.89
2023-05-05T11:51:12.655Z,26.09
2023-05-05T11:53:58.412Z,26.09
2023-05-05T11:56:51.104Z,26.13
2023-05-05T11:59:34.889Z,25.80
2023-05-05T12:02:19.585Z,25.59
2023-05-05T12:05:02.920Z,25.58
2023-05-05T12:07:46.897Z,25.66
2023-05-05T12:10:30.023Z,25.83
2023-05-05T12:13:20.385Z,26.11
2023-05-05T12:16:10.601Z,26.15
2023-05-05T12:19:06.827Z,25.88
2023-05-05T12:21:50.200Z,25.78
2023-05-05T12:24:33.102Z,25.73
2023-05-05T12:27:16.062Z,25.74
2023-05-05T12:30:12.491Z,25.97
2023-05-05T12:33:03.206Z,25.98
2023-05-05T12:35:48.080Z,26.49
2023-05-05T12:38:31.072Z,26.96
2023-05-05T12:41:19.742Z,27.39
2023-05-05T12:44:05.252Z,27.61
2023-05-05T12:46:52.408Z,27.77
2023-05-05T12:49:46.501Z,27.78
2023-05-05T12:52:43.341Z,27.67
2023-05-05T12:55:37.497Z,27.74
2023-05-05T12:58:20.822Z,27.83
2023-05-05T13:01:10.205Z,27.78
2023-05-05T13:04:10.908Z,27.94
2023-05-05T13:07:10.849Z,28.00
2023-05-05T13:10:08.286Z,28.17
2023-05-05T13:12:51.657Z,28.25
2023-05-05T13:15:35.264Z,28.22
2023-05-05T13:18:18.230Z,28.35
2023-05-05T13:21:01.109Z,28.27
2023-05-05T13:23:44.982Z,28.28
2023-05-05T13:26:29.929Z,28.26
2023-05-05T13:29:12.788Z,28.12
2023-05-05T13:31:55.733Z,28.03
2023-05-05T13:34:39.258Z,27.88
2023-05-05T13:37:22.485Z,27.63
2023-05-05T13:40:06.271Z,27.68
2023-05-05T13:42:50.579Z,27.57
2023-05-05T13:45:34.392Z,27.73
2023-05-05T13:48:17.394Z,27.77
2023-05-05T13:51:00.459Z,27.89
2023-05-05T13:53:44.071Z,27.97
2023-05-05T13:56:27.829Z,27.82
2023-05-05T13:59:12.097Z,27.86
2023-05-05T14:01:56.044Z,27.86
2023-05-05T14:04:38.886Z,27.78
2023-05-05T14:07:21.957Z,27.74
2023-05-05T14:10:05.620Z,27.68
2023-05-05T14:12:48.856Z,27.59
2023-05-05T14:15:33.415Z,27.58
2023-05-05T14:18:16.689Z,27.59
2023-05-05T14:20:59.577Z,27.78
2023-05-05T14:23:42.467Z,27.98
2023-05-05T14:26:25.762Z,27.99
2023-05-05T14:29:08.733Z,28.09
2023-05-05T14:31:53.060Z,27.83
2023-05-05T14:34:36.036Z,27.82
2023-05-05T14:37:18.929Z,27.92
2023-05-05T14:40:03.661Z,27.86
2023-05-05T14:42:50.889Z,27.91
2023-05-05T14:45:34.132Z,27.71
2023-05-05T14:48:21.760Z,27.71
2023-05-05T14:51:05.378Z,27.66
2023-05-05T14:53:48.268Z,27.54
2023-05-05T14:56:31.301Z,27.30
2023-05-05T14:59:14.289Z,26.94
2023-05-05T15:01:57.455Z,26.78
2023-05-05T15:04:42.320Z,26.61
2023-05-05T15:07:28.406Z,26.49
2023-05-05T15:10:12.185Z,26.44
2023-05-05T15:12:55.141Z,26.33
2023-05-05T15:15:38.078Z,26.20
2023-05-05T15:18:21.084Z,25.97
2023-05-05T15:21:05.925Z,25.68
2023-05-05T15:23:48.844Z,25.53
2023-05-05T15:26:31.930Z,25.36
2023-05-05T15:29:15.025Z,25.18
2023-05-05T15:31:57.956Z,25.05
2023-05-05T15:34:41.077Z,24.98
2023-05-05T15:37:26.329Z,24.87
2023-05-05T15:40:10.434Z,24.68
2023-05-05T15:42:53.520Z,24.57
2023-05-05T15:45:36.425Z,24.49
2023-05-05T15:48:19.974Z,24.50
2023-05-05T15:51:02.874Z,24.49
2023-05-05T15:53:47.290Z,24.44
2023-05-05T15:56:30.253Z,24.38
2023-05-05T15:59:13.572Z,24.32
2023-05-05T16:01:56.420Z,24.33
2023-05-05T16:04:39.362Z,24.31
2023-05-05T16:07:22.297Z,24.25
2023-05-05T16:10:07.592Z,24.20
2023-05-05T16:12:59.735Z,24.18
2023-05-05T16:15:45.105Z,24.02
2023-05-05T16:18:27.997Z,23.92
2023-05-05T16:21:11.096Z,23.71
2023-05-05T16:23:54.066Z,23.60
2023-05-05T16:26:38.266Z,23.52
2023-05-05T16:29:21.246Z,23.47
2023-05-05T16:32:05.576Z,23.30
2023-05-05T16:34:48.521Z,23.25
2023-05-05T16:37:31.482Z,23.21
2023-05-05T16:40:14.598Z,23.16
2023-05-05T16:42:58.863Z,23.03
2023-05-05T16:45:41.795Z,22.90
2023-05-05T16:48:24.702Z,22.80
2023-05-05T16:51:07.723Z,22.66
2023-05-05T16:53:51.323Z,22.60
2023-05-05T16:56:34.237Z,22.50
2023-05-05T16:59:19.369Z,22.45
2023-05-05T17:02:02.528Z,22.31
2023-05-05T17:04:45.617Z,22.25
2023-05-05T17:07:28.582Z,22.19
2023-05-05T17:10:11.910Z,22.17
2023-05-05T17:12:55.395Z,22.10
2023-05-05T17:15:40.086Z,22.00
2023-05-05T17:18:25.842Z,21.95
2023-05-05T17:21:08.999Z,21.89
2023-05-05T17:23:51.888Z,21.83
2023-05-05T17:26:34.802Z,21.80
2023-05-05T17:29:19.864Z,21.78
2023-05-05T17:32:04.399Z,21.71
2023-05-05T17:34:48.172Z,21.69
2023-05-05T17:37:31.364Z,21.62
2023-05-05T17:40:14.500Z,21.57
2023-05-05T17:42:58.067Z,21.52
2023-05-05T17:45:42.293Z,21.44
2023-05-05T17:48:27.191Z,21.40
2023-05-05T17:51:10.370Z,21.32
2023-05-05T17:53:53.263Z,21.29
2023-05-05T17:56:36.912Z,21.24
2023-05-05T17:59:19.791Z,21.17
2023-05-05T18:02:02.815Z,21.12
2023-05-05T18:04:47.338Z,21.03
2023-05-05T18:07:30.591Z,20.90
2023-05-05T18:10:13.601Z,20.77
2023-05-05T18:12:57.500Z,20.66
2023-05-05T18:15:41.225Z,20.51
2023-05-05T18:18:24.203Z,20.38
2023-05-05T18:21:12.060Z,20.31
2023-05-05T18:24:01.775Z,20.26
2023-05-05T18:26:52.395Z,20.19
2023-05-05T18:29:36.140Z,20.11
2023-05-05T18:32:19.208Z,20.04
2023-05-05T18:35:02.133Z,19.99
2023-05-05T18:37:46.560Z,19.95
2023-05-05T18:40:29.467Z,19.87
2023-05-05T18:43:13.096Z,19.78
2023-05-05T18:45:56.102Z,19.71
2023-05-05T18:48:39.018Z,19.64
2023-05-05T18:51:21.885Z,19.55
2023-05-05T18:54:07.425Z,19.52
2023-05-05T18:56:50.343Z,19.44
2023-05-05T18:59:33.252Z,19.38
2023-05-05T19:02:17.895Z,19.29
2023-05-05T19:05:01.232Z,19.20
2023-05-05T19:07:45.456Z,19.12
2023-05-05T19:10:29.795Z,19.05
2023-05-05T19:13:12.875Z,18.98
2023-05-05T19:15:57.210Z,18.93
2023-05-05T19:18:40.134Z,18.88
2023-05-05T19:21:23.075Z,18.74
2023-05-05T19:24:07.588Z,18.59
2023-05-05T19:26:51.920Z,18.47
2023-05-05T19:29:34.797Z,18.36
2023-05-05T19:32:17.846Z,18.24
2023-05-05T19:35:01.500Z,18.14
2023-05-05T19:37:45.451Z,18.05
2023-05-05T19:40:28.334Z,18.00
2023-05-05T19:43:13.418Z,17.97
2023-05-05T19:45:56.356Z,17.89
2023-05-05T19:48:39.239Z,17.86
2023-05-05T19:51:22.489Z,17.85
2023-05-05T19:54:06.178Z,17.81
2023-05-05T19:56:49.105Z,17.76
2023-05-05T19:59:33.653Z,17.74
2023-05-05T20:02:17.096Z,17.74
2023-05-05T20:05:00.057Z,17.74
2023-05-05T20:07:42.926Z,17.72
2023-05-05T20:10:27.631Z,17.70
2023-05-05T20:13:10.390Z,17.62
2023-05-05T20:15:55.433Z,17.55
2023-05-05T20:18:39.745Z,17.51
2023-05-05T20:21:22.755Z,17.46
2023-05-05T20:24:06.482Z,17.42
2023-05-05T20:26:50.484Z,17.37
2023-05-05T20:29:33.378Z,17.26
2023-05-05T20:32:20.667Z,17.18
2023-05-05T20:35:05.534Z,17.15
2023-05-05T20:37:48.705Z,17.11
2023-05-05T20:40:31.721Z,17.12
2023-05-05T20:43:14.629Z,17.13
2023-05-05T20:45:57.528Z,17.10
2023-05-05T20:48:43.038Z,17.09
2023-05-05T20:51:29.276Z,17.11
2023-05-05T20:54:12.169Z,17.13
2023-05-05T20:56:58.167Z,17.13
2023-05-05T20:59:41.094Z,17.12
2023-05-05T21:02:24.267Z,17.11
2023-05-05T21:05:09.394Z,17.10
2023-05-05T21:07:54.875Z,17.11
2023-05-05T21:10:38.471Z,17.10
2023-05-05T21:13:23.019Z,17.09
2023-05-05T21:16:06.811Z,17.10
2023-05-05T21:18:49.959Z,17.07
2023-05-05T21:21:34.425Z,17.08
2023-05-05T21:24:17.308Z,17.09
2023-05-05T21:27:00.192Z,17.08
2023-05-05T21:29:43.095Z,17.08
2023-05-05T21:32:26.139Z,17.10
2023-05-05T21:35:10.224Z,17.09
2023-05-05T21:37:54.470Z,17.09
2023-05-05T21:40:37.325Z,17.09
2023-05-05T21:43:20.214Z,17.09
2023-05-05T21:46:03.791Z,17.08
2023-05-05T21:48:48.230Z,17.09
2023-05-05T21:51:31.501Z,17.08
2023-05-05T21:54:15.927Z,17.09
2023-05-05T21:56:58.815Z,17.06
2023-05-05T21:59:41.738Z,16.77
2023-05-05T22:02:24.664Z,16.32
2023-05-05T22:05:09.367Z,16.05
2023-05-05T22:07:52.249Z,15.77
2023-05-05T22:10:37.514Z,15.57
2023-05-05T22:13:20.561Z,15.42
2023-05-05T22:16:03.565Z,15.30
2023-05-05T22:18:47.268Z,15.21
2023-05-05T22:21:30.215Z,15.03
2023-05-05T22:24:13.088Z,14.92
2023-05-05T22:26:57.551Z,14.83
2023-05-05T22:29:40.419Z,14.83
2023-05-05T22:32:23.354Z,14.82
2023-05-05T22:35:07.413Z,14.80
2023-05-05T22:37:50.440Z,14.77
2023-05-05T22:40:33.392Z,14.80
2023-05-05T22:43:17.661Z,14.79
2023-05-05T22:46:01.105Z,14.77
2023-05-05T22:48:44.065Z,14.74
2023-05-05T22:51:27.898Z,14.72
2023-05-05T22:54:10.862Z,14.74
2023-05-05T22:56:53.697Z,14.73
2023-05-05T22:59:38.023Z,14.69
2023-05-05T23:02:20.910Z,14.67
2023-05-05T23:05:04.036Z,14.65
2023-05-05T23:07:46.941Z,14.61
2023-05-05T23:10:30.046Z,14.46
2023-05-05T23:13:13.027Z,14.49
2023-05-05T23:15:57.312Z,14.44
2023-05-05T23:18:40.199Z,14.43
2023-05-05T23:21:23.234Z,14.39
2023-05-05T23:24:06.603Z,14.35
2023-05-05T23:26:49.566Z,14.23
2023-05-05T23:29:33.462Z,14.18
2023-05-05T23:32:17.689Z,14.17
2023-05-05T23:35:01.154Z,14.23
2023-05-05T23:37:44.055Z,14.26
2023-05-05T23:40:27.159Z,14.30
2023-05-05T23:43:12.006Z,14.32
2023-05-05T23:45:54.880Z,14.37
2023-05-05T23:48:39.383Z,14.42
2023-05-05T23:51:22.337Z,14.49
2023-05-05T23:54:05.436Z,14.55
2023-05-05T23:56:48.554Z,14.58
2023-05-05T23:59:31.518Z,14.59
